sensor_id;sensor_type;location;lat;lon;timestamp;P1;durP1;ratioP1;P2;durP2;ratioP2
61460;SDS011;47325;50.506;4.472;2023-12-07T00:04:52;16.40;;;8.20;;
61460;SDS011;47325;50.506;4.472;2023-12-07T00:10:36;15.30;;;8.40;;
61460;SDS011;47325;50.506;4.472;2023-12-07T00:16:20;17.50;;;8.50;;
61460;SDS011;47325;50.506;4.472;2023-12-07T00:22:04;14.30;;;8.10;;
61460;SDS011;47325;50.506;4.472;2023-12-07T00:27:49;15.80;;;8.30;;
61460;SDS011;47325;50.506;4.472;2023-12-07T00:33:33;17.30;;;8.80;;
61460;SDS011;47325;50.506;4.472;2023-12-07T00:39:17;16.80;;;8.00;;
61460;SDS011;47325;50.506;4.472;2023-12-07T00:45:02;14.40;;;7.90;;
61460;SDS011;47325;50.506;4.472;2023-12-07T00:50:46;13.40;;;7.50;;
61460;SDS011;47325;50.506;4.472;2023-12-07T00:56:30;17.00;;;8.30;;
61460;SDS011;47325;50.506;4.472;2023-12-07T01:02:14;15.40;;;8.30;;
61460;SDS011;47325;50.506;4.472;2023-12-07T01:07:58;13.90;;;7.40;;
61460;SDS011;47325;50.506;4.472;2023-12-07T01:13:42;14.10;;;7.50;;
61460;SDS011;47325;50.506;4.472;2023-12-07T01:19:26;14.00;;;7.70;;
61460;SDS011;47325;50.506;4.472;2023-12-07T01:25:11;11.70;;;7.10;;
61460;SDS011;47325;50.506;4.472;2023-12-07T01:30:56;15.10;;;7.00;;
61460;SDS011;47325;50.506;4.472;2023-12-07T01:36:40;13.60;;;7.60;;
61460;SDS011;47325;50.506;4.472;2023-12-07T01:42:24;13.40;;;7.00;;
61460;SDS011;47325;50.506;4.472;2023-12-07T01:48:09;12.70;;;6.60;;
61460;SDS011;47325;50.506;4.472;2023-12-07T01:53:53;11.70;;;6.40;;
61460;SDS011;47325;50.506;4.472;2023-12-07T01:59:38;10.60;;;6.10;;
61460;SDS011;47325;50.506;4.472;2023-12-07T02:05:23;11.50;;;6.10;;
61460;SDS011;47325;50.506;4.472;2023-12-07T02:11:08;11.40;;;6.40;;
61460;SDS011;47325;50.506;4.472;2023-12-07T02:16:54;11.40;;;5.80;;
61460;SDS011;47325;50.506;4.472;2023-12-07T02:22:42;11.00;;;5.70;;
61460;SDS011;47325;50.506;4.472;2023-12-07T02:28:28;10.20;;;5.50;;
61460;SDS011;47325;50.506;4.472;2023-12-07T02:34:13;10.70;;;5.90;;
61460;SDS011;47325;50.506;4.472;2023-12-07T02:39:57;10.90;;;5.40;;
61460;SDS011;47325;50.506;4.472;2023-12-07T02:45:42;10.20;;;5.50;;
61460;SDS011;47325;50.506;4.472;2023-12-07T02:51:26;9.60;;;5.20;;
61460;SDS011;47325;50.506;4.472;2023-12-07T02:57:10;10.50;;;5.60;;
61460;SDS011;47325;50.506;4.472;2023-12-07T03:02:54;9.00;;;5.30;;
61460;SDS011;47325;50.506;4.472;2023-12-07T03:08:38;8.40;;;5.20;;
61460;SDS011;47325;50.506;4.472;2023-12-07T03:14:23;7.60;;;5.00;;
61460;SDS011;47325;50.506;4.472;2023-12-07T03:20:08;8.60;;;5.00;;
61460;SDS011;47325;50.506;4.472;2023-12-07T03:25:52;7.80;;;4.80;;
61460;SDS011;47325;50.506;4.472;2023-12-07T03:31:36;9.30;;;5.00;;
61460;SDS011;47325;50.506;4.472;2023-12-07T03:37:20;11.70;;;5.20;;
61460;SDS011;47325;50.506;4.472;2023-12-07T03:43:05;15.80;;;5.00;;
61460;SDS011;47325;50.506;4.472;2023-12-07T03:48:50;10.30;;;5.00;;
61460;SDS011;47325;50.506;4.472;2023-12-07T03:54:34;11.70;;;5.10;;
61460;SDS011;47325;50.506;4.472;2023-12-07T04:00:18;17.50;;;5.00;;
61460;SDS011;47325;50.506;4.472;2023-12-07T04:06:03;12.00;;;4.80;;
61460;SDS011;47325;50.506;4.472;2023-12-07T04:11:47;9.30;;;4.50;;
61460;SDS011;47325;50.506;4.472;2023-12-07T04:17:32;7.80;;;4.40;;
61460;SDS011;47325;50.506;4.472;2023-12-07T04:23:16;10.00;;;4.50;;
61460;SDS011;47325;50.506;4.472;2023-12-07T04:29:01;11.60;;;4.60;;
61460;SDS011;47325;50.506;4.472;2023-12-07T04:34:45;9.40;;;5.00;;
61460;SDS011;47325;50.506;4.472;2023-12-07T04:40:30;14.50;;;4.30;;
61460;SDS011;47325;50.506;4.472;2023-12-07T04:46:14;12.70;;;4.50;;
61460;SDS011;47325;50.506;4.472;2023-12-07T04:52:01;13.20;;;4.90;;
61460;SDS011;47325;50.506;4.472;2023-12-07T04:57:45;7.40;;;4.40;;
61460;SDS011;47325;50.506;4.472;2023-12-07T05:03:30;8.20;;;4.30;;
61460;SDS011;47325;50.506;4.472;2023-12-07T05:09:14;10.40;;;4.70;;
61460;SDS011;47325;50.506;4.472;2023-12-07T05:14:58;8.80;;;4.60;;
61460;SDS011;47325;50.506;4.472;2023-12-07T05:20:43;9.70;;;4.70;;
61460;SDS011;47325;50.506;4.472;2023-12-07T05:26:30;7.70;;;4.30;;
61460;SDS011;47325;50.506;4.472;2023-12-07T05:32:14;7.70;;;4.70;;
61460;SDS011;47325;50.506;4.472;2023-12-07T05:37:58;8.20;;;4.50;;
61460;SDS011;47325;50.506;4.472;2023-12-07T05:43:44;7.50;;;4.40;;
61460;SDS011;47325;50.506;4.472;2023-12-07T05:49:29;7.10;;;4.50;;
61460;SDS011;47325;50.506;4.472;2023-12-07T05:55:13;8.50;;;4.20;;
61460;SDS011;47325;50.506;4.472;2023-12-07T06:00:58;8.20;;;4.40;;
61460;SDS011;47325;50.506;4.472;2023-12-07T06:06:42;7.50;;;4.20;;
61460;SDS011;47325;50.506;4.472;2023-12-07T06:12:26;7.70;;;4.40;;
61460;SDS011;47325;50.506;4.472;2023-12-07T06:18:14;8.50;;;4.10;;
61460;SDS011;47325;50.506;4.472;2023-12-07T06:24:03;9.50;;;4.50;;
61460;SDS011;47325;50.506;4.472;2023-12-07T06:29:48;8.30;;;4.50;;
61460;SDS011;47325;50.506;4.472;2023-12-07T06:35:33;8.30;;;4.40;;
61460;SDS011;47325;50.506;4.472;2023-12-07T06:41:17;7.70;;;4.70;;
61460;SDS011;47325;50.506;4.472;2023-12-07T06:47:02;9.60;;;4.50;;
61460;SDS011;47325;50.506;4.472;2023-12-07T06:52:47;8.90;;;4.70;;
61460;SDS011;47325;50.506;4.472;2023-12-07T06:58:31;9.50;;;4.80;;
61460;SDS011;47325;50.506;4.472;2023-12-07T07:04:15;8.30;;;4.50;;
61460;SDS011;47325;50.506;4.472;2023-12-07T07:10:00;8.80;;;4.70;;
61460;SDS011;47325;50.506;4.472;2023-12-07T07:15:45;7.90;;;4.70;;
61460;SDS011;47325;50.506;4.472;2023-12-07T07:21:29;9.00;;;4.60;;
61460;SDS011;47325;50.506;4.472;2023-12-07T07:27:13;8.40;;;4.60;;
61460;SDS011;47325;50.506;4.472;2023-12-07T07:32:58;7.30;;;4.30;;
61460;SDS011;47325;50.506;4.472;2023-12-07T07:38:42;7.60;;;4.70;;
61460;SDS011;47325;50.506;4.472;2023-12-07T07:44:26;7.50;;;4.30;;
61460;SDS011;47325;50.506;4.472;2023-12-07T07:50:11;9.40;;;4.40;;
61460;SDS011;47325;50.506;4.472;2023-12-07T07:55:55;7.40;;;4.30;;
61460;SDS011;47325;50.506;4.472;2023-12-07T08:01:39;8.10;;;4.60;;
61460;SDS011;47325;50.506;4.472;2023-12-07T08:07:24;7.80;;;4.20;;
61460;SDS011;47325;50.506;4.472;2023-12-07T08:13:09;8.80;;;4.40;;
61460;SDS011;47325;50.506;4.472;2023-12-07T08:18:54;6.60;;;4.10;;
61460;SDS011;47325;50.506;4.472;2023-12-07T08:24:38;10.90;;;4.40;;
61460;SDS011;47325;50.506;4.472;2023-12-07T08:30:24;6.30;;;4.00;;
61460;SDS011;47325;50.506;4.472;2023-12-07T08:36:12;9.80;;;4.50;;
61460;SDS011;47325;50.506;4.472;2023-12-07T08:41:58;8.50;;;4.40;;
61460;SDS011;47325;50.506;4.472;2023-12-07T08:47:42;7.50;;;4.10;;
61460;SDS011;47325;50.506;4.472;2023-12-07T08:53:27;7.20;;;4.10;;
61460;SDS011;47325;50.506;4.472;2023-12-07T08:59:11;11.20;;;4.50;;
61460;SDS011;47325;50.506;4.472;2023-12-07T09:04:55;8.20;;;5.00;;
61460;SDS011;47325;50.506;4.472;2023-12-07T09:10:40;7.90;;;4.30;;
61460;SDS011;47325;50.506;4.472;2023-12-07T09:16:24;7.50;;;4.40;;
61460;SDS011;47325;50.506;4.472;2023-12-07T09:22:09;6.50;;;4.00;;
61460;SDS011;47325;50.506;4.472;2023-12-07T09:27:53;7.70;;;4.10;;
61460;SDS011;47325;50.506;4.472;2023-12-07T09:33:37;6.10;;;3.70;;
61460;SDS011;47325;50.506;4.472;2023-12-07T09:39:22;8.80;;;4.00;;
61460;SDS011;47325;50.506;4.472;2023-12-07T09:45:11;6.70;;;3.80;;
61460;SDS011;47325;50.506;4.472;2023-12-07T09:50:56;7.00;;;3.70;;
61460;SDS011;47325;50.506;4.472;2023-12-07T09:56:40;7.00;;;3.60;;
61460;SDS011;47325;50.506;4.472;2023-12-07T10:02:24;8.10;;;4.10;;
61460;SDS011;47325;50.506;4.472;2023-12-07T10:08:09;7.00;;;3.70;;
61460;SDS011;47325;50.506;4.472;2023-12-07T10:13:58;7.40;;;3.60;;
61460;SDS011;47325;50.506;4.472;2023-12-07T10:19:42;8.20;;;4.10;;
61460;SDS011;47325;50.506;4.472;2023-12-07T10:25:27;7.40;;;3.80;;
61460;SDS011;47325;50.506;4.472;2023-12-07T10:31:12;7.40;;;4.00;;
61460;SDS011;47325;50.506;4.472;2023-12-07T10:36:57;5.50;;;3.60;;
61460;SDS011;47325;50.506;4.472;2023-12-07T10:42:42;6.70;;;3.60;;
61460;SDS011;47325;50.506;4.472;2023-12-07T10:48:31;6.20;;;3.50;;
61460;SDS011;47325;50.506;4.472;2023-12-07T10:54:16;5.30;;;3.40;;
61460;SDS011;47325;50.506;4.472;2023-12-07T11:00:02;7.30;;;3.60;;
61460;SDS011;47325;50.506;4.472;2023-12-07T11:05:47;5.50;;;3.40;;
61460;SDS011;47325;50.506;4.472;2023-12-07T11:11:33;6.20;;;3.60;;
61460;SDS011;47325;50.506;4.472;2023-12-07T11:17:20;6.20;;;3.30;;
61460;SDS011;47325;50.506;4.472;2023-12-07T11:23:07;6.10;;;2.90;;
61460;SDS011;47325;50.506;4.472;2023-12-07T11:28:52;5.30;;;3.20;;
61460;SDS011;47325;50.506;4.472;2023-12-07T11:34:40;5.90;;;3.20;;
61460;SDS011;47325;50.506;4.472;2023-12-07T11:40:25;5.10;;;3.00;;
61460;SDS011;47325;50.506;4.472;2023-12-07T11:46:10;4.50;;;2.90;;
61460;SDS011;47325;50.506;4.472;2023-12-07T11:51:54;5.30;;;3.20;;
61460;SDS011;47325;50.506;4.472;2023-12-07T11:57:39;4.60;;;2.80;;
61460;SDS011;47325;50.506;4.472;2023-12-07T12:03:23;4.30;;;2.80;;
61460;SDS011;47325;50.506;4.472;2023-12-07T12:09:07;5.70;;;3.10;;
61460;SDS011;47325;50.506;4.472;2023-12-07T12:15:09;5.00;;;2.80;;
61460;SDS011;47325;50.506;4.472;2023-12-07T12:20:54;5.70;;;2.80;;
61460;SDS011;47325;50.506;4.472;2023-12-07T12:26:40;6.80;;;2.90;;
61460;SDS011;47325;50.506;4.472;2023-12-07T12:32:25;5.40;;;3.10;;
61460;SDS011;47325;50.506;4.472;2023-12-07T12:38:12;3.80;;;2.60;;
61460;SDS011;47325;50.506;4.472;2023-12-07T12:44:17;4.60;;;2.90;;
61460;SDS011;47325;50.506;4.472;2023-12-07T12:56:13;4.70;;;2.70;;
61460;SDS011;47325;50.506;4.472;2023-12-07T13:01:58;4.30;;;2.60;;
61460;SDS011;47325;50.506;4.472;2023-12-07T13:07:43;6.00;;;2.90;;
61460;SDS011;47325;50.506;4.472;2023-12-07T13:13:32;5.20;;;2.70;;
61460;SDS011;47325;50.506;4.472;2023-12-07T13:19:17;6.40;;;2.90;;
61460;SDS011;47325;50.506;4.472;2023-12-07T13:25:01;4.90;;;2.80;;
61460;SDS011;47325;50.506;4.472;2023-12-07T13:30:46;4.90;;;2.70;;
61460;SDS011;47325;50.506;4.472;2023-12-07T13:36:30;4.00;;;2.60;;
61460;SDS011;47325;50.506;4.472;2023-12-07T13:42:14;4.20;;;2.70;;
61460;SDS011;47325;50.506;4.472;2023-12-07T13:47:58;4.90;;;2.70;;
61460;SDS011;47325;50.506;4.472;2023-12-07T13:53:43;4.50;;;2.60;;
61460;SDS011;47325;50.506;4.472;2023-12-07T13:59:27;4.60;;;2.80;;
61460;SDS011;47325;50.506;4.472;2023-12-07T14:05:12;4.70;;;2.70;;
61460;SDS011;47325;50.506;4.472;2023-12-07T14:11:01;4.80;;;2.70;;
61460;SDS011;47325;50.506;4.472;2023-12-07T14:16:46;4.80;;;2.70;;
61460;SDS011;47325;50.506;4.472;2023-12-07T14:22:48;4.90;;;2.80;;
61460;SDS011;47325;50.506;4.472;2023-12-07T14:28:33;4.50;;;2.80;;
61460;SDS011;47325;50.506;4.472;2023-12-07T14:34:17;5.20;;;2.90;;
61460;SDS011;47325;50.506;4.472;2023-12-07T14:40:16;5.90;;;2.80;;
61460;SDS011;47325;50.506;4.472;2023-12-07T14:46:01;4.60;;;2.60;;
61460;SDS011;47325;50.506;4.472;2023-12-07T14:51:45;4.40;;;2.80;;
61460;SDS011;47325;50.506;4.472;2023-12-07T14:57:29;4.30;;;2.50;;
61460;SDS011;47325;50.506;4.472;2023-12-07T15:03:13;4.30;;;2.50;;
61460;SDS011;47325;50.506;4.472;2023-12-07T15:08:58;5.10;;;2.90;;
61460;SDS011;47325;50.506;4.472;2023-12-07T15:14:43;4.60;;;2.50;;
61460;SDS011;47325;50.506;4.472;2023-12-07T15:20:28;4.90;;;2.70;;
61460;SDS011;47325;50.506;4.472;2023-12-07T15:26:13;5.60;;;2.90;;
61460;SDS011;47325;50.506;4.472;2023-12-07T15:31:57;4.30;;;3.00;;
61460;SDS011;47325;50.506;4.472;2023-12-07T15:37:42;5.00;;;2.70;;
61460;SDS011;47325;50.506;4.472;2023-12-07T15:43:27;4.10;;;2.60;;
61460;SDS011;47325;50.506;4.472;2023-12-07T15:49:11;4.80;;;2.60;;
61460;SDS011;47325;50.506;4.472;2023-12-07T15:54:56;4.00;;;2.50;;
61460;SDS011;47325;50.506;4.472;2023-12-07T16:00:41;5.80;;;2.90;;
61460;SDS011;47325;50.506;4.472;2023-12-07T16:06:26;5.10;;;2.90;;
61460;SDS011;47325;50.506;4.472;2023-12-07T16:12:10;4.10;;;2.80;;
61460;SDS011;47325;50.506;4.472;2023-12-07T16:17:55;3.90;;;2.80;;
61460;SDS011;47325;50.506;4.472;2023-12-07T16:23:40;4.30;;;2.90;;
61460;SDS011;47325;50.506;4.472;2023-12-07T16:29:25;4.90;;;2.70;;
61460;SDS011;47325;50.506;4.472;2023-12-07T16:35:11;3.50;;;2.60;;
61460;SDS011;47325;50.506;4.472;2023-12-07T16:40:56;4.90;;;2.80;;
61460;SDS011;47325;50.506;4.472;2023-12-07T16:46:41;5.70;;;3.00;;
61460;SDS011;47325;50.506;4.472;2023-12-07T16:52:26;5.00;;;3.00;;
61460;SDS011;47325;50.506;4.472;2023-12-07T16:58:11;4.60;;;2.90;;
61460;SDS011;47325;50.506;4.472;2023-12-07T17:04:10;5.20;;;3.10;;
61460;SDS011;47325;50.506;4.472;2023-12-07T17:09:55;5.50;;;2.80;;
61460;SDS011;47325;50.506;4.472;2023-12-07T17:15:42;5.90;;;2.80;;
61460;SDS011;47325;50.506;4.472;2023-12-07T17:21:26;5.40;;;3.10;;
61460;SDS011;47325;50.506;4.472;2023-12-07T17:27:12;8.30;;;4.20;;
61460;SDS011;47325;50.506;4.472;2023-12-07T17:32:56;6.00;;;3.60;;
61460;SDS011;47325;50.506;4.472;2023-12-07T17:38:41;6.90;;;3.70;;
61460;SDS011;47325;50.506;4.472;2023-12-07T17:44:25;6.40;;;3.60;;
61460;SDS011;47325;50.506;4.472;2023-12-07T17:50:10;6.00;;;3.30;;
61460;SDS011;47325;50.506;4.472;2023-12-07T17:55:54;7.60;;;3.60;;
61460;SDS011;47325;50.506;4.472;2023-12-07T18:01:44;7.00;;;3.50;;
61460;SDS011;47325;50.506;4.472;2023-12-07T18:07:30;6.80;;;3.40;;
61460;SDS011;47325;50.506;4.472;2023-12-07T18:13:15;6.20;;;3.70;;
61460;SDS011;47325;50.506;4.472;2023-12-07T18:18:59;6.20;;;3.30;;
61460;SDS011;47325;50.506;4.472;2023-12-07T18:24:45;5.80;;;3.50;;
61460;SDS011;47325;50.506;4.472;2023-12-07T18:30:29;6.50;;;3.40;;
61460;SDS011;47325;50.506;4.472;2023-12-07T18:36:14;6.60;;;3.50;;
61460;SDS011;47325;50.506;4.472;2023-12-07T18:41:58;7.20;;;3.70;;
61460;SDS011;47325;50.506;4.472;2023-12-07T18:47:43;8.00;;;3.90;;
61460;SDS011;47325;50.506;4.472;2023-12-07T18:53:28;7.40;;;3.60;;
61460;SDS011;47325;50.506;4.472;2023-12-07T18:59:13;6.80;;;3.80;;
61460;SDS011;47325;50.506;4.472;2023-12-07T19:04:57;7.50;;;3.50;;
61460;SDS011;47325;50.506;4.472;2023-12-07T19:10:42;6.60;;;3.50;;
61460;SDS011;47325;50.506;4.472;2023-12-07T19:16:27;7.50;;;3.30;;
61460;SDS011;47325;50.506;4.472;2023-12-07T19:22:11;5.90;;;3.40;;
61460;SDS011;47325;50.506;4.472;2023-12-07T19:27:55;6.00;;;3.30;;
61460;SDS011;47325;50.506;4.472;2023-12-07T19:33:40;5.60;;;3.20;;
61460;SDS011;47325;50.506;4.472;2023-12-07T19:39:24;7.40;;;3.50;;
61460;SDS011;47325;50.506;4.472;2023-12-07T19:45:09;5.40;;;3.10;;
61460;SDS011;47325;50.506;4.472;2023-12-07T19:50:53;5.50;;;3.20;;
61460;SDS011;47325;50.506;4.472;2023-12-07T19:56:38;6.90;;;3.40;;
61460;SDS011;47325;50.506;4.472;2023-12-07T20:02:22;6.50;;;3.40;;
61460;SDS011;47325;50.506;4.472;2023-12-07T20:08:06;7.80;;;3.40;;
61460;SDS011;47325;50.506;4.472;2023-12-07T20:13:51;4.80;;;2.80;;
61460;SDS011;47325;50.506;4.472;2023-12-07T20:19:35;5.40;;;3.20;;
61460;SDS011;47325;50.506;4.472;2023-12-07T20:25:21;4.80;;;3.30;;
61460;SDS011;47325;50.506;4.472;2023-12-07T20:31:06;4.90;;;3.20;;
61460;SDS011;47325;50.506;4.472;2023-12-07T20:36:52;5.80;;;2.90;;
61460;SDS011;47325;50.506;4.472;2023-12-07T20:42:36;4.40;;;2.90;;
61460;SDS011;47325;50.506;4.472;2023-12-07T20:48:20;4.60;;;2.80;;
61460;SDS011;47325;50.506;4.472;2023-12-07T20:54:05;4.60;;;2.70;;
61460;SDS011;47325;50.506;4.472;2023-12-07T20:59:51;4.80;;;3.00;;
61460;SDS011;47325;50.506;4.472;2023-12-07T21:05:35;4.40;;;2.90;;
61460;SDS011;47325;50.506;4.472;2023-12-07T21:11:20;4.50;;;2.80;;
61460;SDS011;47325;50.506;4.472;2023-12-07T21:17:05;4.30;;;2.50;;
61460;SDS011;47325;50.506;4.472;2023-12-07T21:22:50;4.50;;;2.70;;
61460;SDS011;47325;50.506;4.472;2023-12-07T21:28:34;4.60;;;2.70;;
61460;SDS011;47325;50.506;4.472;2023-12-07T21:34:18;4.70;;;2.60;;
61460;SDS011;47325;50.506;4.472;2023-12-07T21:40:03;4.20;;;2.60;;
61460;SDS011;47325;50.506;4.472;2023-12-07T21:45:48;4.10;;;2.70;;
61460;SDS011;47325;50.506;4.472;2023-12-07T21:51:32;3.50;;;2.50;;
61460;SDS011;47325;50.506;4.472;2023-12-07T21:57:16;3.90;;;2.30;;
61460;SDS011;47325;50.506;4.472;2023-12-07T22:03:00;7.00;;;2.50;;
61460;SDS011;47325;50.506;4.472;2023-12-07T22:08:45;4.80;;;2.50;;
61460;SDS011;47325;50.506;4.472;2023-12-07T22:14:29;3.90;;;2.40;;
61460;SDS011;47325;50.506;4.472;2023-12-07T22:20:14;5.90;;;2.20;;
61460;SDS011;47325;50.506;4.472;2023-12-07T22:25:58;4.00;;;2.40;;
61460;SDS011;47325;50.506;4.472;2023-12-07T22:31:42;3.10;;;2.20;;
61460;SDS011;47325;50.506;4.472;2023-12-07T22:37:26;3.90;;;2.30;;
61460;SDS011;47325;50.506;4.472;2023-12-07T22:43:11;3.30;;;2.30;;
61460;SDS011;47325;50.506;4.472;2023-12-07T22:48:55;3.50;;;2.20;;
61460;SDS011;47325;50.506;4.472;2023-12-07T22:54:40;4.50;;;2.40;;
61460;SDS011;47325;50.506;4.472;2023-12-07T23:00:26;4.00;;;2.20;;
61460;SDS011;47325;50.506;4.472;2023-12-07T23:06:10;3.30;;;2.00;;
61460;SDS011;47325;50.506;4.472;2023-12-07T23:11:54;3.80;;;2.30;;
61460;SDS011;47325;50.506;4.472;2023-12-07T23:17:39;6.00;;;2.50;;
61460;SDS011;47325;50.506;4.472;2023-12-07T23:23:27;5.20;;;2.40;;
61460;SDS011;47325;50.506;4.472;2023-12-07T23:29:11;4.10;;;2.30;;
61460;SDS011;47325;50.506;4.472;2023-12-07T23:34:56;3.70;;;2.40;;
61460;SDS011;47325;50.506;4.472;2023-12-07T23:40:40;4.50;;;2.60;;
61460;SDS011;47325;50.506;4.472;2023-12-07T23:46:24;3.40;;;2.30;;
61460;SDS011;47325;50.506;4.472;2023-12-07T23:52:09;3.90;;;2.20;;
61460;SDS011;47325;50.506;4.472;2023-12-07T23:57:53;4.60;;;2.60;;
